Time;durP1;ratioP1;P1;durP2;ratioP2;P2;SDS_P1;SDS_P2;PMS_P1;PMS_P2;Temp;Humidity;BMP_temperature;BMP_pressure;BME280_temperature;BME280_humidity;BME280_pressure;Samples;Min_cycle;Max_cycle;Signal;HPM_P1;HPM_P2
2022/02/16 00:02:17;;;;;;;7.72;4.50;;;;;;;7.42;100.00;100248.78;5073280;28;20101;-44
2022/02/16 00:04:45;;;;;;;7.82;4.47;;;;;;;7.43;100.00;100251.28;5073570;28;20044;-44
2022/02/16 00:07:13;;;;;;;8.40;4.57;;;;;;;7.39;100.00;100243.72;5073416;28;20395;-45
2022/02/16 00:09:41;;;;;;;7.43;4.30;;;;;;;7.45;100.00;100236.31;5068222;28;20041;-45
2022/02/16 00:12:09;;;;;;;7.32;4.43;;;;;;;7.46;100.00;100234.56;5070132;28;20436;-44
2022/02/16 00:14:37;;;;;;;7.95;4.45;;;;;;;7.42;100.00;100225.22;5073148;28;20040;-55
2022/02/16 00:17:07;;;;;;;7.07;4.18;;;;;;;7.42;100.00;100222.63;5073272;28;20525;-54
2022/02/16 00:19:35;;;;;;;7.97;4.60;;;;;;;7.40;100.00;100219.25;5070209;28;20044;-46
2022/02/16 00:22:04;;;;;;;6.75;4.63;;;;;;;7.41;100.00;100213.06;5068131;28;20044;-46
2022/02/16 00:24:33;;;;;;;7.32;4.28;;;;;;;7.44;100.00;100205.03;5073212;28;20052;-53
2022/02/16 00:27:01;;;;;;;8.32;4.68;;;;;;;7.43;100.00;100203.34;5071771;28;20394;-54
2022/02/16 00:29:29;;;;;;;6.95;4.50;;;;;;;7.41;100.00;100205.22;5069781;28;20489;-55
2022/02/16 00:31:59;;;;;;;8.30;4.75;;;;;;;7.37;100.00;100206.34;5071286;28;20514;-54
2022/02/16 00:34:29;;;;;;;8.70;5.10;;;;;;;7.41;100.00;100205.22;5072639;28;20074;-46
2022/02/16 00:36:57;;;;;;;8.63;5.10;;;;;;;7.40;100.00;100200.94;5072784;28;20037;-44
2022/02/16 00:39:25;;;;;;;10.02;5.43;;;;;;;7.40;100.00;100190.47;5072697;28;20052;-54
2022/02/16 00:41:53;;;;;;;8.82;5.43;;;;;;;7.41;100.00;100200.00;5072811;28;20048;-54
2022/02/16 00:44:24;;;;;;;9.77;5.70;;;;;;;7.43;100.00;100190.25;5072702;28;20123;-46
2022/02/16 00:46:52;;;;;;;10.60;5.57;;;;;;;7.40;100.00;100177.38;5072367;28;20511;-47
2022/02/16 00:49:20;;;;;;;10.63;5.65;;;;;;;7.42;100.00;100171.13;5071138;28;20147;-47
2022/02/16 00:51:50;;;;;;;9.77;6.15;;;;;;;7.41;100.00;100163.38;5072203;28;20049;-46
2022/02/16 00:54:18;;;;;;;11.85;6.60;;;;;;;7.43;100.00;100159.72;5072188;28;20052;-49
2022/02/16 00:56:46;;;;;;;10.13;6.70;;;;;;;7.41;100.00;100150.28;5072109;28;20109;-55
2022/02/16 00:59:14;;;;;;;9.63;6.22;;;;;;;7.50;100.00;100141.88;5072306;28;20052;-49
2022/02/16 01:01:42;;;;;;;11.52;7.30;;;;;;;7.43;100.00;100133.56;5071990;28;20815;-54
2022/02/16 01:04:10;;;;;;;12.55;7.60;;;;;;;7.42;100.00;100133.66;5071260;28;20859;-52
2022/02/16 01:06:38;;;;;;;11.75;7.15;;;;;;;7.40;100.00;100136.38;5068193;28;20041;-45
2022/02/16 01:09:07;;;;;;;12.57;8.10;;;;;;;7.41;100.00;100121.50;5069641;28;20090;-45
2022/02/16 01:11:36;;;;;;;13.70;8.00;;;;;;;7.45;100.00;100123.00;5072117;28;20044;-47
2022/02/16 01:14:04;;;;;;;13.32;7.85;;;;;;;7.46;100.00;100124.69;5072151;28;20048;-45
2022/02/16 01:16:33;;;;;;;13.93;8.10;;;;;;;7.54;100.00;100127.66;5069051;28;20053;-53
2022/02/16 01:19:01;;;;;;;13.82;8.43;;;;;;;7.45;100.00;100118.59;5069482;28;20122;-49
2022/02/16 01:21:29;;;;;;;13.65;8.15;;;;;;;7.43;100.00;100111.78;5072022;28;20052;-48
2022/02/16 01:23:58;;;;;;;11.50;7.70;;;;;;;7.48;100.00;100109.72;5072325;28;20044;-56
2022/02/16 01:26:27;;;;;;;14.43;8.18;;;;;;;7.47;100.00;100097.56;5072106;28;20037;-49
2022/02/16 01:28:55;;;;;;;13.45;8.07;;;;;;;7.48;100.00;100091.41;5072106;28;20054;-49
2022/02/16 01:31:23;;;;;;;15.75;8.23;;;;;;;7.50;100.00;100075.59;5070759;28;20044;-46
2022/02/16 01:33:51;;;;;;;14.63;7.97;;;;;;;7.49;100.00;100069.53;5072471;28;20048;-54
2022/02/16 01:36:19;;;;;;;13.75;8.70;;;;;;;7.47;100.00;100071.41;5072289;28;20045;-45
2022/02/16 01:38:47;;;;;;;12.38;7.55;;;;;;;7.50;100.00;100076.44;5071839;28;20613;-48
2022/02/16 01:41:17;;;;;;;12.80;7.47;;;;;;;7.56;100.00;100065.56;5072040;28;20494;-44
2022/02/16 01:43:47;;;;;;;16.55;8.63;;;;;;;7.61;100.00;100071.34;5068488;28;20068;-46
2022/02/16 01:46:16;;;;;;;14.18;7.65;;;;;;;7.54;100.00;100059.63;5067972;28;20074;-47
2022/02/16 01:48:45;;;;;;;14.82;8.25;;;;;;;7.57;100.00;100056.78;5071737;28;20048;-54
2022/02/16 01:51:14;;;;;;;15.63;8.43;;;;;;;7.52;100.00;100061.47;5070236;28;20503;-54
2022/02/16 01:53:42;;;;;;;13.68;8.40;;;;;;;7.59;100.00;100060.16;5071216;28;20041;-54
2022/02/16 01:56:11;;;;;;;14.20;8.23;;;;;;;7.57;100.00;100059.41;5071792;28;20052;-55
2022/02/16 01:58:41;;;;;;;13.70;8.35;;;;;;;7.58;100.00;100055.00;5070410;28;20461;-53
2022/02/16 02:01:10;;;;;;;12.20;7.80;;;;;;;7.56;100.00;100047.25;5071772;28;20106;-52
2022/02/16 02:03:38;;;;;;;14.23;8.00;;;;;;;7.60;100.00;100040.88;5069252;28;20036;-54
2022/02/16 02:06:06;;;;;;;14.40;7.55;;;;;;;7.60;100.00;100050.53;5067173;28;20075;-54
2022/02/16 02:08:35;;;;;;;13.00;8.05;;;;;;;7.60;100.00;100043.50;5071251;28;20053;-54
2022/02/16 02:11:03;;;;;;;13.00;7.97;;;;;;;7.65;100.00;100037.97;5070397;28;20051;-53
2022/02/16 02:13:32;;;;;;;13.40;7.63;;;;;;;7.69;100.00;100025.50;5071427;28;20063;-53
2022/02/16 02:16:00;;;;;;;12.63;7.57;;;;;;;7.69;100.00;100017.66;5063185;28;20506;-55
2022/02/16 02:18:30;;;;;;;10.55;7.55;;;;;;;7.69;100.00;100010.66;5067158;28;20052;-52
2022/02/16 02:20:59;;;;;;;12.88;8.55;;;;;;;7.75;100.00;100007.63;5069272;28;20044;-51
2022/02/16 02:23:27;;;;;;;14.15;7.75;;;;;;;7.76;100.00;99996.22;5071683;28;20549;-50
2022/02/16 02:25:55;;;;;;;12.80;7.85;;;;;;;7.73;100.00;99992.97;5071537;28;20106;-55
2022/02/16 02:28:25;;;;;;;10.73;6.75;;;;;;;7.67;100.00;99978.50;5071469;28;20061;-55
2022/02/16 02:30:54;;;;;;;10.63;6.78;;;;;;;7.69;100.00;99984.50;5071375;28;20048;-54
2022/02/16 02:33:22;;;;;;;11.00;6.70;;;;;;;7.72;100.00;99988.69;5075161;28;20068;-54
2022/02/16 02:35:51;;;;;;;13.65;7.03;;;;;;;7.69;100.00;99986.25;5075150;28;20041;-51
2022/02/16 02:38:20;;;;;;;11.52;6.68;;;;;;;7.69;100.00;99981.03;5074946;28;20045;-54
2022/02/16 02:40:53;;;;;;;12.40;6.82;;;;;;;7.71;100.00;99973.91;5074826;28;20570;-54
2022/02/16 02:43:21;;;;;;;10.85;6.05;;;;;;;7.70;100.00;99980.94;5074818;28;20407;-54
2022/02/16 02:45:50;;;;;;;10.25;6.40;;;;;;;7.72;100.00;99978.22;5074639;28;20088;-55
2022/02/16 02:48:21;;;;;;;10.93;6.05;;;;;;;7.71;100.00;99969.50;5074734;28;20040;-54
2022/02/16 02:50:50;;;;;;;11.75;6.68;;;;;;;7.69;100.00;99976.63;5075069;28;20067;-53
2022/02/16 02:53:20;;;;;;;12.65;7.10;;;;;;;7.75;100.00;99973.59;5074786;28;20479;-55
2022/02/16 02:55:48;;;;;;;11.43;7.40;;;;;;;7.75;100.00;99967.53;5071659;28;20055;-55
2022/02/16 02:58:16;;;;;;;13.73;7.63;;;;;;;7.78;100.00;99954.22;5071063;28;20052;-55
2022/02/16 03:00:44;;;;;;;12.05;8.38;;;;;;;7.82;100.00;99957.50;5074372;28;20048;-55
2022/02/16 03:03:13;;;;;;;14.00;8.95;;;;;;;7.75;100.00;99944.81;5071552;28;20709;-55
2022/02/16 03:05:41;;;;;;;13.48;8.30;;;;;;;7.83;100.00;99946.91;5072677;28;20070;-55
2022/02/16 03:08:09;;;;;;;13.52;7.78;;;;;;;7.77;100.00;99944.69;5074539;28;20051;-55
2022/02/16 03:10:38;;;;;;;15.07;8.57;;;;;;;7.76;100.00;99946.50;5074379;28;20080;-54
2022/02/16 03:13:18;;;;;;;12.32;8.25;;;;;;;7.83;100.00;99944.28;5074495;28;20075;-56
2022/02/16 03:15:48;;;;;;;12.00;8.10;;;;;;;7.82;100.00;99937.38;5074553;28;20068;-54
2022/02/16 03:18:17;;;;;;;12.20;7.25;;;;;;;7.81;100.00;99940.94;5074297;28;20063;-54
2022/02/16 03:20:45;;;;;;;11.80;6.40;;;;;;;7.83;100.00;99939.06;5074269;28;20127;-54
2022/02/16 03:23:13;;;;;;;11.60;6.05;;;;;;;7.80;100.00;99931.41;5071187;28;20040;-51
2022/02/16 03:25:43;;;;;;;11.13;6.38;;;;;;;7.82;100.00;99923.47;5070482;28;20041;-54
2022/02/16 03:28:12;;;;;;;11.05;6.75;;;;;;;7.82;100.00;99919.06;5074002;28;20059;-45
2022/02/16 03:30:40;;;;;;;11.20;6.25;;;;;;;7.80;100.00;99910.47;5073599;28;20105;-47
2022/02/16 03:33:29;;;;;;;12.15;5.90;;;;;;;7.79;100.00;99919.28;5071433;28;20072;-55
2022/02/16 03:35:58;;;;;;;10.43;5.95;;;;;;;7.79;100.00;99914.84;5069739;28;20050;-55
2022/02/16 03:38:26;;;;;;;10.55;6.20;;;;;;;7.78;100.00;99897.50;5073847;28;20511;-46
2022/02/16 03:40:56;;;;;;;9.35;5.30;;;;;;;7.76;100.00;99898.53;5073722;28;20056;-51
2022/02/16 03:43:24;;;;;;;9.55;5.13;;;;;;;7.73;100.00;99894.34;5074124;28;20491;-45
2022/02/16 03:45:52;;;;;;;10.35;5.28;;;;;;;7.81;100.00;99887.75;5073615;28;20049;-45
2022/02/16 03:48:22;;;;;;;10.35;5.50;;;;;;;7.76;100.00;99891.53;5073716;28;20090;-45
2022/02/16 03:50:50;;;;;;;11.00;5.00;;;;;;;7.81;100.00;99877.28;5073744;28;20472;-48
2022/02/16 03:53:20;;;;;;;10.30;5.05;;;;;;;7.78;100.00;99865.22;5072428;28;20055;-49
2022/02/16 03:55:48;;;;;;;9.00;4.70;;;;;;;7.75;100.00;99855.81;5069288;28;20048;-55
2022/02/16 03:58:17;;;;;;;8.90;4.55;;;;;;;7.76;100.00;99854.06;5072361;28;20040;-56
2022/02/16 04:00:46;;;;;;;7.72;4.22;;;;;;;7.76;100.00;99864.53;5073330;28;20056;-47
2022/02/16 04:03:14;;;;;;;7.78;4.25;;;;;;;7.81;100.00;99849.31;5073387;28;20067;-45
2022/02/16 04:05:43;;;;;;;7.93;4.40;;;;;;;7.78;100.00;99845.16;5073203;28;20132;-47
2022/02/16 04:08:11;;;;;;;9.15;4.45;;;;;;;7.75;100.00;99842.72;5073316;28;20517;-46
2022/02/16 04:10:40;;;;;;;8.98;4.30;;;;;;;7.74;100.00;99834.97;5073410;28;20044;-46
2022/02/16 04:13:08;;;;;;;7.63;4.32;;;;;;;7.73;100.00;99831.53;5070473;28;20049;-48
2022/02/16 04:15:38;;;;;;;6.10;3.72;;;;;;;7.74;100.00;99833.22;5067782;28;20250;-54
2022/02/16 04:18:06;;;;;;;7.70;4.07;;;;;;;7.75;100.00;99829.63;5073024;28;20449;-55
2022/02/16 04:20:34;;;;;;;8.57;4.15;;;;;;;7.74;100.00;99816.66;5072959;28;20052;-54
2022/02/16 04:23:04;;;;;;;7.05;3.95;;;;;;;7.75;100.00;99815.72;5073072;28;20364;-44
2022/02/16 04:25:32;;;;;;;7.68;4.07;;;;;;;7.73;100.00;99812.34;5069751;28;20056;-45
2022/02/16 04:28:02;;;;;;;8.35;4.38;;;;;;;7.72;100.00;99815.94;5068825;28;20316;-48
2022/02/16 04:30:30;;;;;;;8.10;4.68;;;;;;;7.68;100.00;99790.94;5072802;28;20094;-46
2022/02/16 04:33:00;;;;;;;8.10;4.03;;;;;;;7.69;100.00;99787.34;5073200;28;20052;-50
2022/02/16 04:35:28;;;;;;;8.68;3.92;;;;;;;7.71;100.00;99777.63;5070661;28;20054;-48
2022/02/16 04:37:55;;;;;;;9.63;4.57;;;;;;;7.74;100.00;99766.94;5068806;28;20068;-47
2022/02/16 04:40:24;;;;;;;7.97;4.18;;;;;;;7.79;100.00;99764.84;5071868;28;20087;-55
2022/02/16 04:42:52;;;;;;;7.43;4.10;;;;;;;7.74;100.00;99756.47;5068228;28;20596;-54
2022/02/16 04:45:21;;;;;;;8.50;4.38;;;;;;;7.78;100.00;99747.44;5069908;28;20056;-54
2022/02/16 04:47:49;;;;;;;7.90;4.50;;;;;;;7.81;100.00;99741.97;5072504;28;20055;-55
2022/02/16 04:50:18;;;;;;;7.68;4.25;;;;;;;7.78;100.00;99735.22;5072819;28;20438;-55
2022/02/16 04:52:49;;;;;;;7.45;4.28;;;;;;;7.79;100.00;99729.00;5072660;28;20463;-48
2022/02/16 04:55:17;;;;;;;9.15;4.20;;;;;;;7.82;100.00;99727.13;5071941;28;20060;-45
2022/02/16 04:57:45;;;;;;;8.55;4.47;;;;;;;7.81;100.00;99720.22;5072363;28;20514;-43
2022/02/16 05:00:14;;;;;;;7.60;4.80;;;;;;;7.79;100.00;99705.44;5072430;28;20098;-54
2022/02/16 05:02:42;;;;;;;8.90;4.60;;;;;;;7.77;100.00;99706.50;5070633;28;20075;-53
2022/02/16 05:05:10;;;;;;;7.88;5.07;;;;;;;7.84;100.00;99688.59;5067656;28;20406;-54
2022/02/16 05:07:40;;;;;;;8.70;5.55;;;;;;;7.76;100.00;99678.69;5071980;28;20433;-47
2022/02/16 05:10:09;;;;;;;8.57;4.97;;;;;;;7.79;100.00;99670.59;5071185;28;20056;-46
2022/02/16 05:12:38;;;;;;;8.35;5.15;;;;;;;7.78;100.00;99671.53;5072038;28;20102;-45
2022/02/16 05:15:06;;;;;;;8.30;5.45;;;;;;;7.78;100.00;99676.78;5072312;28;20045;-53
2022/02/16 05:17:35;;;;;;;9.88;6.28;;;;;;;7.80;100.00;99672.28;5072103;28;20055;-53
2022/02/16 05:20:04;;;;;;;10.98;6.45;;;;;;;7.79;100.00;99653.09;5072298;28;20064;-54
2022/02/16 05:22:33;;;;;;;9.60;6.20;;;;;;;7.81;100.00;99660.00;5072021;28;20178;-55
2022/02/16 05:25:02;;;;;;;9.48;6.53;;;;;;;7.85;100.00;99651.81;5072191;28;20053;-55
2022/02/16 05:27:31;;;;;;;9.25;6.72;;;;;;;7.82;100.00;99641.56;5070208;28;20119;-45
2022/02/16 05:29:59;;;;;;;8.55;5.82;;;;;;;7.84;100.00;99649.31;5068101;28;20076;-56
2022/02/16 05:32:28;;;;;;;9.30;6.05;;;;;;;7.82;100.00;99641.56;5070125;28;20052;-47
2022/02/16 05:34:56;;;;;;;8.18;5.40;;;;;;;7.80;100.00;99635.63;5071836;28;20173;-54
2022/02/16 05:37:24;;;;;;;9.65;5.72;;;;;;;7.86;100.00;99635.16;5071886;28;20063;-53
2022/02/16 05:39:54;;;;;;;8.40;5.10;;;;;;;7.86;100.00;99629.13;5071725;28;20067;-48
2022/02/16 05:42:23;;;;;;;8.35;5.47;;;;;;;7.89;100.00;99619.22;5071821;28;20072;-54
2022/02/16 05:44:51;;;;;;;8.27;4.85;;;;;;;7.91;100.00;99617.34;5071594;28;20059;-45
2022/02/16 05:47:19;;;;;;;8.02;5.20;;;;;;;7.86;100.00;99609.00;5072132;28;20507;-54
2022/02/16 05:49:47;;;;;;;7.45;4.78;;;;;;;7.83;100.00;99598.75;5071829;28;20054;-53
2022/02/16 05:52:15;;;;;;;8.63;4.60;;;;;;;7.85;100.00;99594.22;5071944;28;20689;-55
2022/02/16 05:54:43;;;;;;;7.20;4.47;;;;;;;7.84;100.00;99576.03;5071656;28;20458;-53
2022/02/16 05:57:12;;;;;;;6.75;4.45;;;;;;;7.88;100.00;99585.31;5071894;28;20048;-44
2022/02/16 05:59:41;;;;;;;7.20;4.40;;;;;;;7.87;100.00;99584.50;5071703;28;20044;-45
2022/02/16 06:02:14;;;;;;;5.97;3.35;;;;;;;7.91;100.00;99575.47;5066530;28;20072;-46
2022/02/16 06:04:42;;;;;;;7.53;3.70;;;;;;;7.86;100.00;99574.13;5069114;28;20102;-45
2022/02/16 06:07:10;;;;;;;7.32;3.85;;;;;;;7.90;100.00;99567.72;5073939;28;20059;-44
2022/02/16 06:09:38;;;;;;;6.63;4.05;;;;;;;7.86;100.00;99559.25;5075991;28;20429;-47
2022/02/16 06:12:07;;;;;;;8.10;3.95;;;;;;;7.90;100.00;99552.84;5075730;28;20048;-45
2022/02/16 06:14:35;;;;;;;6.53;3.83;;;;;;;7.91;100.00;99554.53;5075405;28;20087;-54
2022/02/16 06:17:06;;;;;;;6.65;3.70;;;;;;;7.92;100.00;99547.50;5074020;28;20087;-46
2022/02/16 06:19:34;;;;;;;7.70;4.13;;;;;;;7.94;100.00;99532.53;5071935;28;20048;-54
2022/02/16 06:22:03;;;;;;;6.95;3.58;;;;;;;7.97;100.00;99526.22;5073865;28;20045;-45
2022/02/16 06:24:31;;;;;;;6.93;3.95;;;;;;;7.95;100.00;99521.09;5072833;28;20052;-52
2022/02/16 06:26:59;;;;;;;8.45;4.18;;;;;;;7.97;100.00;99518.38;5071297;28;20048;-54
2022/02/16 06:29:27;;;;;;;6.53;3.72;;;;;;;8.02;100.00;99493.50;5075048;28;20091;-56
2022/02/16 06:31:55;;;;;;;5.97;3.28;;;;;;;7.98;100.00;99497.31;5075280;28;20045;-44
2022/02/16 06:34:24;;;;;;;6.65;4.10;;;;;;;7.99;100.00;99475.41;5075377;28;20072;-54
2022/02/16 06:36:52;;;;;;;6.78;3.78;;;;;;;8.03;100.00;99481.22;5073914;28;20075;-44
2022/02/16 06:39:20;;;;;;;6.30;3.47;;;;;;;8.04;100.00;99485.53;5074818;28;20049;-46
2022/02/16 06:41:48;;;;;;;6.38;3.40;;;;;;;8.11;100.00;99492.81;5074813;28;20095;-45
2022/02/16 06:44:17;;;;;;;6.03;3.58;;;;;;;8.13;100.00;99487.44;5074813;28;20051;-45
2022/02/16 06:46:45;;;;;;;6.28;3.60;;;;;;;8.17;100.00;99496.72;5074581;28;20041;-46
2022/02/16 06:49:17;;;;;;;6.13;3.75;;;;;;;8.12;100.00;99498.88;5074733;28;20123;-44
2022/02/16 06:51:47;;;;;;;6.15;3.42;;;;;;;8.11;100.00;99490.19;5074736;28;20040;-45
2022/02/16 06:54:15;;;;;;;6.57;3.90;;;;;;;8.11;100.00;99490.19;5074714;28;20056;-46
2022/02/16 06:56:43;;;;;;;6.45;3.80;;;;;;;8.15;100.00;99474.22;5073582;28;20833;-55
2022/02/16 06:59:11;;;;;;;6.63;3.55;;;;;;;8.10;100.00;99464.13;5071044;28;20048;-49
2022/02/16 07:01:39;;;;;;;6.65;3.75;;;;;;;8.14;100.00;99470.78;5071609;28;20056;-48
2022/02/16 07:04:07;;;;;;;5.80;3.35;;;;;;;8.14;100.00;99481.25;5074778;28;20071;-52
2022/02/16 07:06:35;;;;;;;5.88;3.35;;;;;;;8.19;100.00;99466.00;5074536;28;20469;-50
2022/02/16 07:09:04;;;;;;;5.90;3.60;;;;;;;8.23;100.00;99471.84;5074740;28;20048;-56
2022/02/16 07:11:32;;;;;;;5.93;3.63;;;;;;;8.23;100.00;99479.72;5074460;28;20123;-56
2022/02/16 07:14:02;;;;;;;5.30;3.42;;;;;;;8.22;100.00;99485.91;5074694;28;20052;-55
2022/02/16 07:16:30;;;;;;;6.95;3.67;;;;;;;8.25;100.00;99494.34;5074315;28;20415;-44
2022/02/16 07:18:58;;;;;;;7.18;3.85;;;;;;;8.25;100.00;99494.34;5073684;28;20127;-54
2022/02/16 07:21:27;;;;;;;7.00;3.05;;;;;;;8.32;100.00;99484.25;5074428;28;20052;-55
2022/02/16 07:23:55;;;;;;;5.45;3.28;;;;;;;8.33;100.00;99482.44;5074561;28;20499;-55
2022/02/16 07:26:25;;;;;;;5.90;3.28;;;;;;;8.37;100.00;99481.25;5074185;28;20044;-52
2022/02/16 07:28:53;;;;;;;5.68;3.28;;;;;;;8.40;100.00;99487.09;5074345;28;20106;-56
2022/02/16 07:31:21;;;;;;;5.70;3.20;;;;;;;8.41;100.00;99478.31;5074030;28;20055;-54
2022/02/16 07:33:49;;;;;;;5.72;2.95;;;;;;;8.44;100.00;99477.22;5074280;28;20076;-48
2022/02/16 07:36:18;;;;;;;4.78;2.35;;;;;;;8.42;100.00;99479.13;5074163;28;20464;-45
2022/02/16 07:38:46;;;;;;;5.30;2.28;;;;;;;8.42;100.00;99479.94;5073329;28;20044;-52
2022/02/16 07:41:14;;;;;;;4.53;2.42;;;;;;;8.43;100.00;99486.84;5073746;28;20174;-52
2022/02/16 07:43:43;;;;;;;4.18;2.65;;;;;;;8.46;100.00;99477.97;5073647;28;20109;-51
2022/02/16 07:46:11;;;;;;;3.60;2.08;;;;;;;8.44;100.00;99462.34;5073451;28;20048;-54
2022/02/16 07:48:39;;;;;;;4.65;2.13;;;;;;;8.49;100.00;99458.56;5073433;28;20041;-54
2022/02/16 07:51:07;;;;;;;4.97;2.28;;;;;;;8.50;100.00;99462.84;5073665;28;20444;-53
2022/02/16 07:53:38;;;;;;;4.40;2.15;;;;;;;8.53;100.00;99473.91;5074173;28;20048;-53
2022/02/16 07:56:07;;;;;;;3.75;2.00;;;;;;;8.53;100.00;99452.94;5073609;28;20083;-54
2022/02/16 07:58:35;;;;;;;4.32;2.30;;;;;;;8.53;100.00;99450.31;5073388;28;20040;-55
2022/02/16 08:01:04;;;;;;;6.00;2.20;;;;;;;8.58;100.00;99450.78;5073727;28;20049;-55
2022/02/16 08:03:34;;;;;;;3.92;2.00;;;;;;;8.67;100.00;99448.41;5073501;28;20124;-52
2022/02/16 08:06:03;;;;;;;4.68;2.20;;;;;;;8.63;100.00;99450.44;5070581;28;20132;-52
2022/02/16 08:08:32;;;;;;;4.05;2.13;;;;;;;8.65;100.00;99448.53;5070399;28;20118;-54
2022/02/16 08:11:00;;;;;;;4.22;2.17;;;;;;;8.70;100.00;99440.28;5072119;28;20380;-52
2022/02/16 08:13:28;;;;;;;3.72;1.83;;;;;;;8.73;100.00;99450.53;5072878;28;20052;-54
2022/02/16 08:15:56;;;;;;;4.47;2.30;;;;;;;8.77;100.00;99468.53;5067617;28;20148;-55
2022/02/16 08:18:27;;;;;;;3.83;1.98;;;;;;;8.84;100.00;99473.28;5071495;28;20105;-55
2022/02/16 08:20:55;;;;;;;4.00;2.28;;;;;;;8.88;100.00;99465.03;5073482;28;20055;-53
2022/02/16 08:23:24;;;;;;;4.57;2.45;;;;;;;8.88;100.00;99483.41;5073276;28;20051;-53
2022/02/16 08:25:56;;;;;;;4.40;2.30;;;;;;;8.89;100.00;99477.19;5073138;28;20123;-54
2022/02/16 08:28:24;;;;;;;5.57;2.75;;;;;;;8.93;100.00;99488.25;5072885;28;20040;-53
2022/02/16 08:30:52;;;;;;;4.97;2.53;;;;;;;8.93;100.00;99491.75;5072659;28;20106;-54
2022/02/16 08:33:20;;;;;;;6.57;2.88;;;;;;;8.95;100.00;99487.19;5073229;28;20495;-54
2022/02/16 08:35:49;;;;;;;5.53;2.65;;;;;;;9.10;100.00;99485.13;5072932;28;20369;-54
2022/02/16 08:38:17;;;;;;;7.50;2.90;;;;;;;9.07;100.00;99485.38;5072833;28;20048;-50
2022/02/16 08:40:45;;;;;;;6.93;2.95;;;;;;;9.09;100.00;99506.22;5072611;28;20132;-53
2022/02/16 08:43:26;;;;;;;6.95;2.83;;;;;;;9.10;100.00;99506.09;5072709;28;20103;-53
2022/02/16 08:45:54;;;;;;;5.95;2.72;;;;;;;9.19;100.00;99504.56;5071565;28;20143;-54
2022/02/16 08:48:23;;;;;;;6.68;3.00;;;;;;;9.16;100.00;99503.97;5072726;28;20094;-54
2022/02/16 08:50:53;;;;;;;7.00;3.00;;;;;;;9.14;100.00;99498.84;5072521;28;20040;-55
2022/02/16 08:53:22;;;;;;;5.97;2.90;;;;;;;9.21;100.00;99497.38;5071571;28;20487;-54
2022/02/16 08:55:56;;;;;;;7.53;3.65;;;;;;;9.18;100.00;99489.75;5068269;28;20138;-55
2022/02/16 08:58:24;;;;;;;6.60;3.05;;;;;;;9.20;100.00;99487.84;5071346;28;20044;-53
2022/02/16 09:00:52;;;;;;;7.90;3.85;;;;;;;9.23;100.00;99490.22;5067805;28;20101;-55
2022/02/16 09:03:20;;;;;;;7.75;3.20;;;;;;;9.32;100.00;99498.31;5069183;28;20423;-55
2022/02/16 09:05:49;;;;;;;7.25;3.47;;;;;;;9.35;100.00;99498.06;5071967;28;20044;-55
2022/02/16 09:08:19;;;;;;;7.47;3.28;;;;;;;9.35;100.00;99498.88;5069279;28;20068;-56
2022/02/16 09:10:48;;;;;;;6.68;3.40;;;;;;;9.43;100.00;99493.00;5070844;28;20052;-55
2022/02/16 09:13:16;;;;;;;7.47;3.75;;;;;;;9.39;100.00;99497.66;5072504;28;20044;-54
2022/02/16 09:15:47;;;;;;;6.70;3.30;;;;;;;9.48;100.00;99498.72;5072114;28;20066;-56
2022/02/16 09:18:17;;;;;;;6.32;3.13;;;;;;;9.47;100.00;99499.69;5072430;28;20045;-55
2022/02/16 09:20:47;;;;;;;8.48;3.60;;;;;;;9.46;100.00;99509.34;5072221;28;20047;-51
2022/02/16 09:23:15;;;;;;;7.90;4.18;;;;;;;9.48;100.00;99517.91;5072543;28;20044;-56
2022/02/16 09:25:45;;;;;;;7.32;3.53;;;;;;;9.52;100.00;99504.56;5072302;28;20043;-47
2022/02/16 09:28:13;;;;;;;8.05;3.90;;;;;;;9.54;100.00;99519.19;5070705;28;20063;-50
2022/02/16 09:30:41;;;;;;;8.55;3.90;;;;;;;9.56;100.00;99519.09;5072323;28;20559;-45
2022/02/16 09:33:10;;;;;;;8.85;3.92;;;;;;;9.58;100.00;99525.88;5072291;28;20048;-46
2022/02/16 09:35:38;;;;;;;6.97;3.78;;;;;;;9.55;100.00;99528.75;5072010;28;20052;-46
2022/02/16 09:38:10;;;;;;;7.30;3.85;;;;;;;9.58;100.00;99530.28;5072369;28;20139;-55
2022/02/16 09:40:39;;;;;;;7.50;3.75;;;;;;;9.60;100.00;99529.22;5073534;28;20441;-48
2022/02/16 09:43:08;;;;;;;8.13;3.97;;;;;;;9.58;100.00;99525.88;5078627;28;20048;-53
2022/02/16 09:45:37;;;;;;;8.25;3.90;;;;;;;9.61;100.00;99530.03;5078608;28;20560;-55
2022/02/16 09:48:06;;;;;;;7.40;3.35;;;;;;;9.67;100.00;99528.69;5078469;28;20102;-55
2022/02/16 09:50:35;;;;;;;8.52;4.25;;;;;;;9.66;100.00;99527.88;5078422;28;20049;-45
2022/02/16 09:53:03;;;;;;;9.00;4.53;;;;;;;9.73;100.00;99528.19;5078483;28;20054;-44
2022/02/16 09:55:32;;;;;;;9.77;5.47;;;;;;;9.76;100.00;99522.69;5078543;28;20048;-54
2022/02/16 09:58:00;;;;;;;9.88;5.18;;;;;;;9.73;100.00;99518.53;5078527;28;20054;-44
2022/02/16 10:00:30;;;;;;;9.77;5.07;;;;;;;9.78;100.00;99526.03;5078541;28;20044;-54
2022/02/16 10:03:11;;;;;;;10.77;5.30;;;;;;;9.81;100.00;99523.97;5078543;28;20072;-44
2022/02/16 10:05:39;;;;;;;9.50;4.80;;;;;;;9.86;100.00;99531.47;5078592;28;20132;-54
2022/02/16 10:08:07;;;;;;;8.98;5.22;;;;;;;9.88;100.00;99545.31;5077450;28;20051;-44
2022/02/16 10:10:35;;;;;;;12.90;5.10;;;;;;;9.90;100.00;99537.31;5075046;28;20049;-53
2022/02/16 10:13:18;;;;;;;9.15;5.00;;;;;;;9.94;100.00;99531.69;5076271;28;20456;-55
2022/02/16 10:15:49;;;;;;;;;;;;;;;10.00;100.00;99519.00;5077570;28;20048;-55
2022/02/16 10:18:18;;;;;;;9.25;5.20;;;;;;;10.09;100.00;99528.72;5078204;28;20061;-54
2022/02/16 10:20:49;;;;;;;11.18;5.35;;;;;;;10.12;100.00;99521.41;5077488;28;20032;-54
2022/02/16 10:23:18;;;;;;;9.48;5.32;;;;;;;10.11;100.00;99501.34;5078189;28;20488;-55
2022/02/16 10:25:51;;;;;;;9.88;5.22;;;;;;;10.15;100.00;99505.38;5078106;28;20571;-56
2022/02/16 10:28:19;;;;;;;;;;;;;;;10.23;100.00;99493.41;5076036;28;20044;-45
2022/02/16 10:31:00;;;;;;;12.70;6.00;;;;;;;10.20;100.00;99494.50;5068109;28;20422;-54
2022/02/16 10:33:30;;;;;;;11.68;5.60;;;;;;;10.25;100.00;99492.31;5063891;28;20051;-54
2022/02/16 10:36:02;;;;;;;9.85;5.40;;;;;;;10.28;100.00;99499.94;5077625;28;20048;-44
2022/02/16 10:38:30;;;;;;;10.82;5.15;;;;;;;10.32;100.00;99490.81;5070720;28;20046;-44
2022/02/16 10:41:05;;;;;;;9.93;5.75;;;;;;;10.39;100.00;99493.78;5077878;28;20499;-44
2022/02/16 10:43:35;;;;;;;12.13;5.15;;;;;;;10.45;100.00;99505.56;5078048;28;20048;-43
2022/02/16 10:46:17;;;;;;;12.10;5.55;;;;;;;10.49;100.00;99493.84;5072614;28;20059;-43
2022/02/16 10:48:45;;;;;;;11.32;4.90;;;;;;;10.57;100.00;99494.00;5076566;28;20052;-46
2022/02/16 10:51:17;;;;;;;11.30;5.60;;;;;;;10.57;100.00;99478.22;5078010;28;20044;-43
2022/02/16 10:53:47;;;;;;;12.70;5.22;;;;;;;10.64;100.00;99463.56;5074098;28;20059;-43
2022/02/16 10:56:15;;;;;;;12.32;5.70;;;;;;;10.65;100.00;99470.50;5074952;28;20071;-55
2022/02/16 10:58:43;;;;;;;9.73;5.20;;;;;;;10.70;100.00;99479.78;5074603;28;20476;-45
2022/02/16 11:01:13;;;;;;;12.07;5.32;;;;;;;10.69;100.00;99478.97;5074874;28;20055;-43
2022/02/16 11:03:47;;;;;;;12.48;4.90;;;;;;;10.70;100.00;99477.16;5074610;28;20049;-44
2022/02/16 11:06:18;;;;;;;12.00;5.28;;;;;;;10.76;100.00;99474.00;5074315;28;20509;-45
2022/02/16 11:08:50;;;;;;;10.32;5.38;;;;;;;10.79;100.00;99455.31;5069746;28;20052;-55
2022/02/16 11:11:27;;;;;;;8.88;4.70;;;;;;;10.87;100.00;99462.53;5072408;28;20055;-54
2022/02/16 11:14:07;;;;;;;12.48;5.20;;;;;;;10.83;100.00;99446.19;5074581;28;20052;-55
2022/02/16 11:16:38;;;;;;;10.82;4.72;;;;;;;10.82;100.00;99457.66;5074381;28;20046;-44
2022/02/16 11:19:23;;;;;;;10.68;5.45;;;;;;;10.84;100.00;99455.75;5074486;28;20064;-43
2022/02/16 11:22:01;;;;;;;8.68;4.35;;;;;;;10.88;100.00;99445.78;5072266;28;20059;-54
2022/02/16 11:24:34;;;;;;;11.55;4.57;;;;;;;10.89;100.00;99444.81;5071333;28;20040;-55
2022/02/16 11:27:26;;;;;;;10.27;4.40;;;;;;;10.94;100.00;99456.59;5071996;28;20055;-55
2022/02/16 11:29:56;;;;;;;9.65;4.03;;;;;;;10.94;100.00;99453.97;5074108;28;20051;-55
2022/02/16 11:32:36;;;;;;;12.63;4.30;;;;;;;11.01;100.00;99453.44;5074208;28;20045;-54
2022/02/16 11:35:29;;;;;;;10.05;4.00;;;;;;;11.06;100.00;99448.59;5074147;28;20044;-55
2022/02/16 11:38:08;;;;;;;7.28;3.35;;;;;;;11.12;100.00;99453.28;5073987;28;20098;-54
2022/02/16 11:40:39;;;;;;;11.23;3.30;;;;;;;11.11;100.00;99462.13;5073278;28;20057;-55